createdAt,value
2022-08-28T00:00:38.075Z,63.19
2022-08-28T00:03:43.193Z,62.16
2022-08-28T00:06:46.035Z,60.97
2022-08-28T00:09:49.198Z,60.68
2022-08-28T00:12:55.814Z,60.17
2022-08-28T00:16:03.287Z,60.34
2022-08-28T00:19:06.794Z,60.54
2022-08-28T00:22:09.470Z,63.06
2022-08-28T00:25:13.520Z,65.69
2022-08-28T00:28:23.926Z,67.65
2022-08-28T00:31:27.385Z,68.24
2022-08-28T00:34:33.278Z,68.88
2022-08-28T00:37:36.343Z,70.42
2022-08-28T00:40:44.513Z,70.83
2022-08-28T00:43:51.685Z,71.32
2022-08-28T00:46:57.867Z,72.00
2022-08-28T00:50:00.154Z,72.94
2022-08-28T00:53:02.861Z,71.90
2022-08-28T00:56:12.290Z,70.82
2022-08-28T00:59:19.952Z,71.12
2022-08-28T01:02:22.340Z,71.57
2022-08-28T01:05:26.225Z,71.41
2022-08-28T01:08:30.430Z,72.01
2022-08-28T01:11:33.788Z,72.62
2022-08-28T01:14:39.123Z,73.69
2022-08-28T01:17:46.254Z,74.42
2022-08-28T01:21:01.817Z,74.41
2022-08-28T01:24:11.829Z,74.97
2022-08-28T01:27:14.165Z,74.04
2022-08-28T01:30:22.293Z,72.84
2022-08-28T01:33:28.277Z,72.10
2022-08-28T01:36:31.288Z,71.25
2022-08-28T01:39:33.702Z,71.09
2022-08-28T01:42:39.357Z,69.92
2022-08-28T01:45:44.520Z,70.42
2022-08-28T01:48:47.205Z,71.00
2022-08-28T01:51:49.910Z,71.41
2022-08-28T01:54:55.223Z,72.02
2022-08-28T01:57:59.826Z,72.57
2022-08-28T02:01:02.359Z,72.80
2022-08-28T02:04:05.221Z,73.37
2022-08-28T02:07:07.663Z,74.02
2022-08-28T02:10:12.025Z,73.92
2022-08-28T02:13:14.665Z,73.92
2022-08-28T02:16:17.731Z,74.05
2022-08-28T02:19:20.934Z,74.49
2022-08-28T02:22:23.426Z,74.75
2022-08-28T02:25:28.037Z,75.37
2022-08-28T02:28:31.095Z,75.75
2022-08-28T02:31:33.866Z,75.99
2022-08-28T02:34:37.158Z,76.13
2022-08-28T02:37:40.197Z,75.90
2022-08-28T02:40:43.326Z,75.80
2022-08-28T02:43:45.754Z,75.80
2022-08-28T02:46:48.607Z,75.88
2022-08-28T02:49:50.825Z,76.76
2022-08-28T02:52:53.710Z,76.08
2022-08-28T02:55:56.957Z,75.89
2022-08-28T02:58:59.656Z,76.51
2022-08-28T03:02:04.158Z,76.22
2022-08-28T03:05:08.040Z,76.21
2022-08-28T03:08:10.543Z,76.46
2022-08-28T03:11:13.241Z,75.91
2022-08-28T03:14:15.847Z,75.81
2022-08-28T03:17:19.280Z,74.86
2022-08-28T03:20:21.851Z,74.78
2022-08-28T03:23:27.944Z,75.56
2022-08-28T03:26:30.663Z,75.69
2022-08-28T03:29:33.258Z,75.38
2022-08-28T03:32:36.317Z,75.40
2022-08-28T03:35:38.850Z,75.45
2022-08-28T03:38:42.079Z,74.97
2022-08-28T03:41:44.789Z,75.08
2022-08-28T03:44:47.705Z,75.50
2022-08-28T03:47:51.281Z,75.82
2022-08-28T03:50:54.093Z,76.75
2022-08-28T03:53:59.157Z,77.76
2022-08-28T03:57:02.941Z,78.12
2022-08-28T04:00:11.445Z,78.21
2022-08-28T04:03:14.380Z,78.32
2022-08-28T04:06:17.334Z,78.90
2022-08-28T04:09:19.586Z,79.49
2022-08-28T04:12:22.200Z,80.08
2022-08-28T04:15:26.125Z,80.30
2022-08-28T04:18:29.817Z,79.97
2022-08-28T04:21:32.076Z,78.35
2022-08-28T04:24:34.761Z,78.30
2022-08-28T04:27:37.836Z,78.72
2022-08-28T04:30:41.931Z,77.42
2022-08-28T04:33:44.288Z,78.58
2022-08-28T04:39:53.098Z,78.46
2022-08-28T04:42:55.929Z,78.36
2022-08-28T04:45:58.950Z,78.88
2022-08-28T04:49:02.387Z,78.52
2022-08-28T04:52:05.578Z,76.84
2022-08-28T04:55:08.916Z,76.54
2022-08-28T04:58:11.728Z,76.94
2022-08-28T05:01:18.973Z,75.35
2022-08-28T05:04:21.669Z,74.50
2022-08-28T05:07:24.648Z,74.33
2022-08-28T05:10:27.224Z,74.43
2022-08-28T05:13:29.813Z,73.33
2022-08-28T05:16:34.982Z,72.45
2022-08-28T05:19:37.653Z,71.33
2022-08-28T05:22:40.236Z,70.64
2022-08-28T05:25:46.911Z,69.91
2022-08-28T05:28:49.631Z,69.08
2022-08-28T05:31:53.054Z,68.23
2022-08-28T05:34:55.950Z,65.25
2022-08-28T05:37:59.000Z,64.40
2022-08-28T05:41:03.340Z,62.25
2022-08-28T05:44:09.685Z,58.01
2022-08-28T05:47:13.091Z,51.29
2022-08-28T05:50:15.741Z,46.18
2022-08-28T05:53:18.207Z,42.53
2022-08-28T05:56:23.787Z,40.37
2022-08-28T05:59:27.273Z,39.11
2022-08-28T06:02:30.117Z,36.88
2022-08-28T06:05:32.781Z,33.60
2022-08-28T06:08:36.200Z,34.01
2022-08-28T06:11:44.868Z,33.70
2022-08-28T06:14:50.054Z,31.99
2022-08-28T06:17:53.885Z,32.04
2022-08-28T06:20:56.217Z,31.03
2022-08-28T06:23:59.565Z,29.85
2022-08-28T06:27:01.841Z,29.91
2022-08-28T06:30:05.582Z,28.04
2022-08-28T06:33:08.190Z,28.11
2022-08-28T06:36:12.365Z,26.25
2022-08-28T06:39:15.137Z,26.70
2022-08-28T06:42:17.964Z,25.86
2022-08-28T06:45:20.307Z,25.01
2022-08-28T06:48:26.291Z,23.83
2022-08-28T06:51:29.749Z,23.25
2022-08-28T06:54:32.497Z,22.02
2022-08-28T06:57:34.918Z,21.97
2022-08-28T07:00:37.822Z,21.22
2022-08-28T07:03:42.516Z,20.97
2022-08-28T07:06:53.736Z,22.54
2022-08-28T07:09:56.281Z,24.00
2022-08-28T07:13:00.425Z,26.31
2022-08-28T07:16:03.564Z,28.27
2022-08-28T07:19:10.417Z,29.43
2022-08-28T07:22:12.986Z,31.56
2022-08-28T07:25:17.159Z,32.63
2022-08-28T07:28:21.294Z,34.99
2022-08-28T07:31:27.448Z,35.38
2022-08-28T07:34:29.942Z,36.30
2022-08-28T07:37:32.879Z,38.12
2022-08-28T07:40:36.740Z,38.83
2022-08-28T07:44:11.741Z,39.80
2022-08-28T07:47:14.147Z,41.44
2022-08-28T07:50:17.099Z,43.19
2022-08-28T07:53:19.810Z,42.32
2022-08-28T07:56:22.409Z,43.67
2022-08-28T07:59:25.058Z,45.01
2022-08-28T08:02:30.024Z,46.23
2022-08-28T08:05:32.755Z,47.62
2022-08-28T08:08:35.279Z,50.10
2022-08-28T08:11:38.778Z,48.02
2022-08-28T08:14:43.832Z,45.31
2022-08-28T08:17:47.241Z,44.99
2022-08-28T08:20:49.533Z,43.02
2022-08-28T08:23:52.288Z,42.18
2022-08-28T08:26:59.565Z,42.24
2022-08-28T08:30:03.851Z,41.68
2022-08-28T08:33:06.779Z,41.59
2022-08-28T08:36:12.123Z,41.96
2022-08-28T08:39:14.697Z,44.36
2022-08-28T08:42:31.540Z,44.94
2022-08-28T08:45:36.120Z,44.07
2022-08-28T08:48:41.131Z,42.35
2022-08-28T08:51:48.424Z,41.74
2022-08-28T08:55:19.326Z,40.89
2022-08-28T08:58:25.875Z,40.98
2022-08-28T09:01:55.390Z,40.75
2022-08-28T09:05:05.062Z,39.88
2022-08-28T09:08:16.283Z,41.67
2022-08-28T09:11:27.530Z,40.94
2022-08-28T09:14:41.678Z,40.82
2022-08-28T09:17:53.282Z,40.64
2022-08-28T09:20:59.048Z,41.13
2022-08-28T09:24:05.769Z,42.50
2022-08-28T09:27:31.811Z,43.54
2022-08-28T09:30:42.309Z,43.26
2022-08-28T09:33:46.814Z,43.21
2022-08-28T09:36:50.395Z,40.97
2022-08-28T09:40:23.895Z,40.34
2022-08-28T09:43:26.720Z,40.02
2022-08-28T09:46:30.680Z,42.17
2022-08-28T09:49:33.099Z,43.03
2022-08-28T09:52:35.733Z,42.11
2022-08-28T09:55:47.012Z,42.56
2022-08-28T09:58:54.724Z,41.77
2022-08-28T10:02:13.461Z,41.80
2022-08-28T10:05:25.784Z,40.19
2022-08-28T10:08:35.260Z,39.78
2022-08-28T10:11:46.837Z,39.19
2022-08-28T10:15:16.823Z,38.61
2022-08-28T10:19:07.311Z,39.52
2022-08-28T10:22:33.548Z,37.96
2022-08-28T10:26:03.339Z,36.68
2022-08-28T10:29:33.386Z,35.72
2022-08-28T10:32:42.066Z,35.12
2022-08-28T10:35:55.543Z,35.36
2022-08-28T10:39:26.252Z,34.93
2022-08-28T10:42:54.036Z,35.23
2022-08-28T10:46:01.388Z,33.76
2022-08-28T10:49:10.926Z,32.30
2022-08-28T10:52:27.604Z,33.17
2022-08-28T10:55:36.601Z,31.64
2022-08-28T10:58:40.919Z,31.27
2022-08-28T11:01:45.139Z,27.77
2022-08-28T11:04:49.348Z,26.94
2022-08-28T11:07:56.547Z,25.34
2022-08-28T11:11:01.973Z,24.97
2022-08-28T11:14:04.591Z,24.52
2022-08-28T11:17:31.526Z,24.07
2022-08-28T11:20:34.513Z,25.69
2022-08-28T11:23:49.560Z,23.46
2022-08-28T11:27:21.542Z,24.09
2022-08-28T11:30:33.520Z,25.10
2022-08-28T11:33:42.060Z,24.17
2022-08-28T11:36:44.793Z,24.56
2022-08-28T11:39:47.073Z,24.08
2022-08-28T11:42:49.872Z,24.15
2022-08-28T11:45:55.211Z,24.12
2022-08-28T11:49:00.431Z,23.88
2022-08-28T11:52:42.059Z,24.31
2022-08-28T11:56:01.597Z,25.35
2022-08-28T11:59:35.519Z,25.86
2022-08-28T12:02:43.125Z,24.23
2022-08-28T12:05:52.398Z,23.10
2022-08-28T12:08:55.524Z,23.65
2022-08-28T12:12:06.603Z,22.65
2022-08-28T12:15:11.547Z,22.74
2022-08-28T12:18:40.270Z,23.29
2022-08-28T12:21:43.551Z,23.53
2022-08-28T12:25:01.063Z,23.00
2022-08-28T12:28:28.763Z,23.68
2022-08-28T12:32:14.003Z,23.14
2022-08-28T12:35:22.858Z,23.79
2022-08-28T12:38:29.033Z,23.82
2022-08-28T12:41:33.129Z,24.62
2022-08-28T12:44:35.725Z,24.84
2022-08-28T12:47:39.038Z,25.64
2022-08-28T12:50:41.785Z,24.09
2022-08-28T12:53:50.697Z,25.38
2022-08-28T12:56:55.335Z,24.55
2022-08-28T13:00:09.257Z,24.90
2022-08-28T13:03:12.068Z,26.44
2022-08-28T13:06:25.010Z,26.08
2022-08-28T13:09:28.918Z,26.86
2022-08-28T13:12:54.854Z,29.24
2022-08-28T13:16:02.239Z,30.37
2022-08-28T13:19:04.458Z,29.13
2022-08-28T13:22:28.559Z,30.30
2022-08-28T13:25:35.418Z,30.08
2022-08-28T13:28:40.467Z,29.50
2022-08-28T13:31:44.157Z,31.23
2022-08-28T13:35:20.312Z,31.53
2022-08-28T13:38:25.167Z,32.12
2022-08-28T13:41:29.844Z,34.03
2022-08-28T13:44:35.351Z,35.72
2022-08-28T13:47:38.467Z,36.15
2022-08-28T13:50:46.930Z,35.96
2022-08-28T13:53:50.540Z,35.39
2022-08-28T13:56:54.854Z,36.93
2022-08-28T13:59:57.580Z,36.87
2022-08-28T14:03:18.537Z,36.97
2022-08-28T14:06:21.583Z,37.06
2022-08-28T14:09:29.390Z,36.65
2022-08-28T14:12:33.622Z,36.56
2022-08-28T14:15:36.289Z,37.92
2022-08-28T14:18:39.243Z,36.76
2022-08-28T14:21:42.045Z,37.52
2022-08-28T14:24:44.767Z,38.43
2022-08-28T14:27:47.035Z,39.00
2022-08-28T14:30:51.510Z,37.74
2022-08-28T14:33:53.929Z,37.60
2022-08-28T14:36:57.992Z,37.69
2022-08-28T14:40:01.516Z,38.54
2022-08-28T14:43:06.872Z,38.63
2022-08-28T14:46:15.823Z,40.95
2022-08-28T14:49:20.929Z,39.76
2022-08-28T14:52:23.521Z,39.77
2022-08-28T14:55:26.920Z,39.37
2022-08-28T14:58:29.147Z,40.04
2022-08-28T15:01:40.860Z,40.16
2022-08-28T15:04:45.011Z,41.79
2022-08-28T15:07:47.624Z,41.61
2022-08-28T15:10:51.653Z,42.03
2022-08-28T15:13:58.272Z,41.88
2022-08-28T15:17:00.661Z,42.66
2022-08-28T15:20:04.940Z,43.28
2022-08-28T15:23:08.102Z,42.91
2022-08-28T15:26:15.209Z,43.53
2022-08-28T15:29:18.104Z,43.55
2022-08-28T15:32:21.289Z,43.67
2022-08-28T15:35:23.729Z,44.22
2022-08-28T15:38:26.433Z,44.44
2022-08-28T15:41:30.992Z,44.67
2022-08-28T15:44:34.311Z,45.49
2022-08-28T15:47:37.196Z,46.11
2022-08-28T15:50:41.631Z,46.83
2022-08-28T15:53:45.299Z,47.07
2022-08-28T15:56:50.696Z,47.72
2022-08-28T15:59:55.408Z,48.48
2022-08-28T16:02:59.989Z,48.51
2022-08-28T16:06:03.033Z,48.25
2022-08-28T16:09:06.909Z,48.42
2022-08-28T16:12:09.646Z,48.80
2022-08-28T16:15:12.278Z,49.74
2022-08-28T16:18:16.090Z,50.37
2022-08-28T16:21:19.732Z,50.88
2022-08-28T16:24:22.354Z,50.58
2022-08-28T16:27:24.639Z,50.26
2022-08-28T16:30:27.291Z,50.44
2022-08-28T16:33:30.383Z,50.62
2022-08-28T16:36:33.497Z,50.57
2022-08-28T16:39:36.426Z,50.95
2022-08-28T16:42:39.285Z,51.46
2022-08-28T16:45:44.148Z,51.86
2022-08-28T16:48:47.833Z,51.97
2022-08-28T16:51:50.255Z,52.54
2022-08-28T16:54:53.283Z,52.69
2022-08-28T16:57:56.105Z,52.11
2022-08-28T17:00:59.360Z,52.57
2022-08-28T17:04:01.854Z,52.55
2022-08-28T17:07:05.255Z,52.64
2022-08-28T17:10:10.178Z,52.79
2022-08-28T17:13:13.035Z,52.47
2022-08-28T17:16:16.536Z,52.72
2022-08-28T17:19:20.915Z,52.66
2022-08-28T17:22:32.674Z,52.55
2022-08-28T17:25:35.531Z,52.74
2022-08-28T17:28:40.814Z,53.25
2022-08-28T17:31:43.992Z,53.37
2022-08-28T17:34:46.497Z,53.46
2022-08-28T17:37:50.773Z,53.47
2022-08-28T17:40:53.380Z,53.67
2022-08-28T17:43:56.209Z,53.62
2022-08-28T17:46:58.490Z,54.00
2022-08-28T17:50:02.854Z,54.20
2022-08-28T17:53:05.651Z,54.14
2022-08-28T17:56:08.811Z,54.28
2022-08-28T17:59:12.514Z,54.52
2022-08-28T18:02:17.187Z,54.92
2022-08-28T18:05:20.418Z,54.64
2022-08-28T18:08:22.785Z,54.25
2022-08-28T18:11:25.833Z,54.07
2022-08-28T18:14:28.523Z,53.49
2022-08-28T18:17:31.404Z,53.77
2022-08-28T18:20:33.738Z,54.02
2022-08-28T18:23:36.544Z,54.50
2022-08-28T18:26:40.959Z,54.89
2022-08-28T18:29:43.804Z,54.83
2022-08-28T18:32:46.120Z,54.95
2022-08-28T18:35:49.758Z,54.92
2022-08-28T18:38:52.477Z,55.03
2022-08-28T18:41:55.791Z,55.66
2022-08-28T18:44:58.196Z,56.03
2022-08-28T18:48:02.133Z,55.64
2022-08-28T18:51:10.427Z,55.24
2022-08-28T18:54:16.587Z,55.29
2022-08-28T18:57:19.108Z,55.37
2022-08-28T19:00:22.619Z,55.31
2022-08-28T19:03:25.014Z,55.50
2022-08-28T19:06:27.955Z,55.36
2022-08-28T19:09:33.099Z,55.65
2022-08-28T19:12:39.421Z,55.62
2022-08-28T19:15:42.685Z,55.90
2022-08-28T19:18:46.154Z,57.08
2022-08-28T19:21:50.679Z,55.75
2022-08-28T19:24:53.235Z,57.22
2022-08-28T19:27:58.957Z,58.08
2022-08-28T19:31:03.298Z,57.15
2022-08-28T19:34:07.899Z,57.59
2022-08-28T19:37:10.599Z,57.68
2022-08-28T19:40:13.511Z,57.60
2022-08-28T19:43:16.732Z,58.31
2022-08-28T19:46:20.637Z,58.24
2022-08-28T19:49:23.943Z,58.69
2022-08-28T19:52:29.271Z,58.84
2022-08-28T19:55:32.388Z,58.29
2022-08-28T19:58:36.149Z,58.59
2022-08-28T20:01:47.887Z,58.55
2022-08-28T20:04:51.270Z,58.20
2022-08-28T20:07:53.578Z,59.13
2022-08-28T20:10:56.559Z,59.27
2022-08-28T20:14:04.570Z,59.71
2022-08-28T20:17:07.441Z,60.03
2022-08-28T20:20:11.687Z,60.38
2022-08-28T20:23:16.615Z,61.43
2022-08-28T20:26:21.045Z,62.32
2022-08-28T20:29:25.162Z,63.26
2022-08-28T20:32:27.693Z,63.67
2022-08-28T20:35:30.489Z,63.76
2022-08-28T20:38:33.736Z,64.14
2022-08-28T20:41:39.499Z,64.79
2022-08-28T20:44:41.927Z,65.54
2022-08-28T20:47:45.106Z,65.98
2022-08-28T20:50:48.356Z,66.68
2022-08-28T20:53:53.792Z,66.57
2022-08-28T20:56:59.267Z,66.99
2022-08-28T21:00:05.634Z,67.37
2022-08-28T21:03:12.195Z,67.55
2022-08-28T21:06:14.989Z,68.20
2022-08-28T21:09:17.711Z,68.43
2022-08-28T21:12:20.889Z,69.00
2022-08-28T21:15:23.596Z,69.93
2022-08-28T21:18:26.118Z,70.12
2022-08-28T21:21:32.200Z,70.31
2022-08-28T21:24:37.077Z,70.53
2022-08-28T21:27:39.850Z,70.75
2022-08-28T21:30:43.045Z,71.18
2022-08-28T21:33:47.025Z,71.59
2022-08-28T21:36:51.012Z,71.64
2022-08-28T21:39:53.907Z,71.72
2022-08-28T21:42:59.154Z,72.04
2022-08-28T21:46:03.163Z,72.61
2022-08-28T21:49:07.146Z,72.59
2022-08-28T21:52:09.399Z,72.62
2022-08-28T21:55:15.079Z,72.98
2022-08-28T21:58:18.195Z,73.59
2022-08-28T22:01:24.005Z,73.88
2022-08-28T22:04:26.980Z,74.33
2022-08-28T22:07:29.357Z,75.07
2022-08-28T22:10:32.367Z,75.19
2022-08-28T22:13:36.458Z,75.71
2022-08-28T22:16:39.136Z,75.94
2022-08-28T22:19:41.742Z,76.59
2022-08-28T22:23:02.922Z,77.01
2022-08-28T22:26:08.533Z,77.13
2022-08-28T22:29:11.843Z,77.77
2022-08-28T22:32:15.209Z,78.32
2022-08-28T22:35:19.106Z,78.19
2022-08-28T22:38:23.018Z,79.26
2022-08-28T22:41:25.867Z,79.84
2022-08-28T22:44:29.440Z,79.93
2022-08-28T22:47:32.950Z,79.95
2022-08-28T22:50:35.163Z,80.32
2022-08-28T22:53:41.261Z,80.91
2022-08-28T22:56:43.645Z,80.88
2022-08-28T22:59:46.427Z,81.13
2022-08-28T23:02:49.374Z,80.77
2022-08-28T23:05:52.303Z,80.50
2022-08-28T23:08:54.670Z,80.68
2022-08-28T23:12:00.265Z,81.03
2022-08-28T23:15:06.335Z,81.29
2022-08-28T23:18:09.560Z,81.07
2022-08-28T23:21:12.199Z,81.23
2022-08-28T23:24:16.169Z,81.62
2022-08-28T23:27:35.853Z,81.94
2022-08-28T23:30:41.321Z,81.19
2022-08-28T23:33:50.855Z,81.99
2022-08-28T23:36:54.525Z,82.24
2022-08-28T23:39:57.416Z,82.40
2022-08-28T23:43:02.876Z,82.43
2022-08-28T23:46:06.304Z,82.05
2022-08-28T23:49:09.908Z,81.98
2022-08-28T23:52:12.270Z,81.86
2022-08-28T23:55:16.629Z,81.75
2022-08-28T23:58:22.365Z,81.59
